< < Back
Terminal Aerodrome Forecast


Current Version              Previous Versions:   1  2  3  4  5  6  7  8  9  

Terminal Aerodrome Forecast

361
FTUS42 KGSP 101731
TAFCLT
TAF
KCLT 101731Z 1018/1118 28010G17KT P6SM SKC
      TEMPO 1018/1022 26009G15KT SCT045
     FM110000 29006KT P6SM FEW120
     FM110600 28004KT P6SM SKC=



Latest METAR

181
SAUS70 KWBC 102200 RRG
MTRCLT
METAR KCLT 102152Z 28012G17KT 10SM FEW060 SCT250 02/M14 A2997 RMK AO2
SLP154 T00221144


USA.gov is the U.S. government's official web portal to all federal, state and local government web resources and services.